sensor_id;sensor_type;location;lat;lon;timestamp;pressure;altitude;pressure_sealevel;temperature;humidity
13767;BME280;47980;48.794;9.176;2024-01-15T00:01:07;97228.81;;;-0.05;71.16
13767;BME280;47980;48.794;9.176;2024-01-15T00:03:38;97215.78;;;-0.05;71.21
13767;BME280;47980;48.794;9.176;2024-01-15T00:06:10;97218.94;;;-0.32;71.71
13767;BME280;47980;48.794;9.176;2024-01-15T00:08:41;97219.78;;;-0.36;72.40
13767;BME280;47980;48.794;9.176;2024-01-15T00:11:13;97212.22;;;-0.38;73.23
13767;BME280;47980;48.794;9.176;2024-01-15T00:13:46;97199.78;;;-0.46;73.08
13767;BME280;47980;48.794;9.176;2024-01-15T00:16:17;97203.25;;;-0.56;73.39
13767;BME280;47980;48.794;9.176;2024-01-15T00:18:49;97200.41;;;-0.54;73.57
13767;BME280;47980;48.794;9.176;2024-01-15T00:21:20;97197.56;;;-0.92;74.80
13767;BME280;47980;48.794;9.176;2024-01-15T00:23:52;97206.91;;;-0.86;75.21
13767;BME280;47980;48.794;9.176;2024-01-15T00:26:23;97202.66;;;-0.77;74.75
13767;BME280;47980;48.794;9.176;2024-01-15T00:28:56;97203.53;;;-0.86;75.41
13767;BME280;47980;48.794;9.176;2024-01-15T00:31:27;97202.75;;;-0.87;75.44
13767;BME280;47980;48.794;9.176;2024-01-15T00:34:00;97194.00;;;-1.01;75.97
13767;BME280;47980;48.794;9.176;2024-01-15T00:36:31;97196.09;;;-1.03;76.17
13767;BME280;47980;48.794;9.176;2024-01-15T00:39:03;97188.84;;;-1.06;77.11
13767;BME280;47980;48.794;9.176;2024-01-15T00:41:35;97188.06;;;-1.07;77.06
13767;BME280;47980;48.794;9.176;2024-01-15T00:44:08;97193.53;;;-1.08;76.60
13767;BME280;47980;48.794;9.176;2024-01-15T00:46:43;97190.88;;;-0.98;76.99
13767;BME280;47980;48.794;9.176;2024-01-15T00:49:16;97190.66;;;-1.07;77.40
13767;BME280;47980;48.794;9.176;2024-01-15T00:51:47;97195.50;;;-0.95;76.69
13767;BME280;47980;48.794;9.176;2024-01-15T00:54:19;97198.13;;;-0.95;77.06
13767;BME280;47980;48.794;9.176;2024-01-15T00:56:50;97198.81;;;-0.84;76.71
13767;BME280;47980;48.794;9.176;2024-01-15T00:59:23;97193.03;;;-0.76;76.22
13767;BME280;47980;48.794;9.176;2024-01-15T01:01:54;97194.53;;;-0.70;76.70
13767;BME280;47980;48.794;9.176;2024-01-15T01:04:26;97188.09;;;-0.78;77.10
13767;BME280;47980;48.794;9.176;2024-01-15T01:06:57;97191.84;;;-0.60;76.34
13767;BME280;47980;48.794;9.176;2024-01-15T01:09:29;97182.28;;;-0.40;75.65
13767;BME280;47980;48.794;9.176;2024-01-15T01:12:00;97182.28;;;-0.40;75.47
13767;BME280;47980;48.794;9.176;2024-01-15T01:14:33;97184.31;;;-0.32;75.79
13767;BME280;47980;48.794;9.176;2024-01-15T01:17:05;97187.13;;;-0.29;75.61
13767;BME280;47980;48.794;9.176;2024-01-15T01:19:36;97189.97;;;-0.25;75.80
13767;BME280;47980;48.794;9.176;2024-01-15T01:22:08;97190.94;;;-0.21;75.50
13767;BME280;47980;48.794;9.176;2024-01-15T01:24:39;97179.38;;;-0.10;75.22
13767;BME280;47980;48.794;9.176;2024-01-15T01:27:11;97178.72;;;-0.26;75.61
13767;BME280;47980;48.794;9.176;2024-01-15T01:29:44;97180.44;;;-0.11;74.08
13767;BME280;47980;48.794;9.176;2024-01-15T01:32:15;97180.91;;;-0.09;75.72
13767;BME280;47980;48.794;9.176;2024-01-15T01:34:46;97174.84;;;-0.04;74.28
13767;BME280;47980;48.794;9.176;2024-01-15T01:37:18;97177.25;;;-0.08;75.24
13767;BME280;47980;48.794;9.176;2024-01-15T01:39:49;97185.72;;;0.03;75.66
13767;BME280;47980;48.794;9.176;2024-01-15T01:42:21;97185.38;;;0.10;75.00
13767;BME280;47980;48.794;9.176;2024-01-15T01:44:54;97182.44;;;0.16;74.58
13767;BME280;47980;48.794;9.176;2024-01-15T01:47:25;97188.44;;;0.17;74.68
13767;BME280;47980;48.794;9.176;2024-01-15T01:49:57;97190.88;;;0.08;75.22
13767;BME280;47980;48.794;9.176;2024-01-15T01:52:29;97185.38;;;0.10;75.06
13767;BME280;47980;48.794;9.176;2024-01-15T01:55:02;97191.09;;;0.12;74.91
13767;BME280;47980;48.794;9.176;2024-01-15T01:57:34;97194.50;;;0.12;75.35
13767;BME280;47980;48.794;9.176;2024-01-15T02:00:09;97187.56;;;0.03;75.08
13767;BME280;47980;48.794;9.176;2024-01-15T02:02:41;97180.13;;;0.15;75.16
13767;BME280;47980;48.794;9.176;2024-01-15T02:05:13;97179.91;;;0.11;75.40
13767;BME280;47980;48.794;9.176;2024-01-15T02:07:46;97183.34;;;0.07;75.34
13767;BME280;47980;48.794;9.176;2024-01-15T02:10:17;97182.63;;;0.01;75.08
13767;BME280;47980;48.794;9.176;2024-01-15T02:12:49;97184.28;;;-0.08;75.54
13767;BME280;47980;48.794;9.176;2024-01-15T02:15:22;97188.91;;;0.00;75.89
13767;BME280;47980;48.794;9.176;2024-01-15T02:17:57;97183.56;;;0.10;74.57
13767;BME280;47980;48.794;9.176;2024-01-15T02:20:29;97181.91;;;-0.05;74.77
13767;BME280;47980;48.794;9.176;2024-01-15T02:23:06;97170.31;;;-0.17;75.95
13767;BME280;47980;48.794;9.176;2024-01-15T02:25:40;97178.38;;;-0.14;76.31
13767;BME280;47980;48.794;9.176;2024-01-15T02:28:13;97170.00;;;-0.11;75.52
13767;BME280;47980;48.794;9.176;2024-01-15T02:30:45;97170.88;;;-0.20;76.40
13767;BME280;47980;48.794;9.176;2024-01-15T02:33:17;97166.72;;;-0.21;76.55
13767;BME280;47980;48.794;9.176;2024-01-15T02:35:48;97178.72;;;-0.26;76.66
13767;BME280;47980;48.794;9.176;2024-01-15T02:38:21;97171.84;;;-0.40;77.39
13767;BME280;47980;48.794;9.176;2024-01-15T02:40:53;97169.03;;;-0.44;77.71
13767;BME280;47980;48.794;9.176;2024-01-15T02:43:24;97166.94;;;-0.42;77.59
13767;BME280;47980;48.794;9.176;2024-01-15T02:45:56;97164.03;;;-0.64;78.50
13767;BME280;47980;48.794;9.176;2024-01-15T02:48:27;97161.47;;;-0.69;79.91
13767;BME280;47980;48.794;9.176;2024-01-15T02:50:58;97162.75;;;-0.67;79.41
13767;BME280;47980;48.794;9.176;2024-01-15T02:53:31;97165.09;;;-0.65;79.64
13767;BME280;47980;48.794;9.176;2024-01-15T02:56:03;97162.06;;;-0.78;79.96
13767;BME280;47980;48.794;9.176;2024-01-15T02:58:35;97168.88;;;-0.82;80.21
13767;BME280;47980;48.794;9.176;2024-01-15T03:01:06;97158.38;;;-0.71;80.06
13767;BME280;47980;48.794;9.176;2024-01-15T03:03:39;97156.31;;;-0.75;79.22
13767;BME280;47980;48.794;9.176;2024-01-15T03:06:11;97158.09;;;-0.70;79.69
13767;BME280;47980;48.794;9.176;2024-01-15T03:08:43;97149.72;;;-0.67;80.15
13767;BME280;47980;48.794;9.176;2024-01-15T03:11:15;97149.09;;;-0.83;79.98
13767;BME280;47980;48.794;9.176;2024-01-15T03:13:46;97152.16;;;-0.76;80.64
13767;BME280;47980;48.794;9.176;2024-01-15T03:16:18;97150.03;;;-0.74;79.89
13767;BME280;47980;48.794;9.176;2024-01-15T03:18:50;97155.78;;;-0.77;80.00
13767;BME280;47980;48.794;9.176;2024-01-15T03:21:22;97152.34;;;-0.67;80.00
13767;BME280;47980;48.794;9.176;2024-01-15T03:23:55;97147.13;;;-0.67;80.07
13767;BME280;47980;48.794;9.176;2024-01-15T03:26:28;97152.06;;;-0.65;80.19
13767;BME280;47980;48.794;9.176;2024-01-15T03:29:00;97145.50;;;-0.58;80.07
13767;BME280;47980;48.794;9.176;2024-01-15T03:31:31;97148.63;;;-0.61;80.17
13767;BME280;47980;48.794;9.176;2024-01-15T03:34:03;97148.09;;;-0.58;80.36
13767;BME280;47980;48.794;9.176;2024-01-15T03:36:34;97131.63;;;-0.53;79.63
13767;BME280;47980;48.794;9.176;2024-01-15T03:39:07;97143.13;;;-0.59;79.89
13767;BME280;47980;48.794;9.176;2024-01-15T03:41:39;97128.47;;;-0.50;79.72
13767;BME280;47980;48.794;9.176;2024-01-15T03:44:10;97127.25;;;-0.58;79.95
13767;BME280;47980;48.794;9.176;2024-01-15T03:46:42;97132.00;;;-0.65;80.96
13767;BME280;47980;48.794;9.176;2024-01-15T03:49:13;97136.72;;;-0.67;80.68
13767;BME280;47980;48.794;9.176;2024-01-15T03:51:45;97125.66;;;-0.54;80.38
13767;BME280;47980;48.794;9.176;2024-01-15T03:54:18;97120.81;;;-0.41;80.10
13767;BME280;47980;48.794;9.176;2024-01-15T03:56:49;97126.22;;;-0.33;79.42
13767;BME280;47980;48.794;9.176;2024-01-15T03:59:20;97127.97;;;-0.28;78.64
13767;BME280;47980;48.794;9.176;2024-01-15T04:01:52;97128.41;;;-0.21;78.50
13767;BME280;47980;48.794;9.176;2024-01-15T04:04:23;97117.72;;;-0.19;78.48
13767;BME280;47980;48.794;9.176;2024-01-15T04:06:55;97117.38;;;-0.13;77.89
13767;BME280;47980;48.794;9.176;2024-01-15T04:09:28;97105.75;;;-0.02;78.18
13767;BME280;47980;48.794;9.176;2024-01-15T04:11:59;97098.88;;;0.08;76.86
13767;BME280;47980;48.794;9.176;2024-01-15T04:14:31;97101.50;;;0.08;77.32
13767;BME280;47980;48.794;9.176;2024-01-15T04:17:02;97100.34;;;-0.05;77.86
13767;BME280;47980;48.794;9.176;2024-01-15T04:19:34;97102.94;;;0.14;76.92
13767;BME280;47980;48.794;9.176;2024-01-15T04:22:05;97101.31;;;0.18;76.55
13767;BME280;47980;48.794;9.176;2024-01-15T04:24:38;97099.94;;;0.44;74.90
13767;BME280;47980;48.794;9.176;2024-01-15T04:27:09;97094.97;;;0.43;74.96
13767;BME280;47980;48.794;9.176;2024-01-15T04:29:41;97095.84;;;0.38;75.96
13767;BME280;47980;48.794;9.176;2024-01-15T04:32:14;97082.56;;;0.54;75.40
13767;BME280;47980;48.794;9.176;2024-01-15T04:34:46;97089.91;;;0.52;75.01
13767;BME280;47980;48.794;9.176;2024-01-15T04:37:17;97080.47;;;0.56;75.35
13767;BME280;47980;48.794;9.176;2024-01-15T04:39:51;97083.06;;;0.56;74.82
13767;BME280;47980;48.794;9.176;2024-01-15T04:42:25;97081.03;;;0.53;74.87
13767;BME280;47980;48.794;9.176;2024-01-15T04:44:56;97085.16;;;0.54;75.20
13767;BME280;47980;48.794;9.176;2024-01-15T04:47:28;97091.31;;;0.63;75.06
13767;BME280;47980;48.794;9.176;2024-01-15T04:49:59;97089.59;;;0.72;74.58
13767;BME280;47980;48.794;9.176;2024-01-15T04:52:31;97091.78;;;0.65;75.30
13767;BME280;47980;48.794;9.176;2024-01-15T04:55:04;97093.16;;;0.76;74.06
13767;BME280;47980;48.794;9.176;2024-01-15T04:57:36;97085.22;;;0.67;74.45
13767;BME280;47980;48.794;9.176;2024-01-15T05:00:08;97072.19;;;0.67;74.67
13767;BME280;47980;48.794;9.176;2024-01-15T05:02:40;97076.28;;;0.74;74.28
13767;BME280;47980;48.794;9.176;2024-01-15T05:05:11;97072.59;;;0.75;74.97
13767;BME280;47980;48.794;9.176;2024-01-15T05:07:43;97071.78;;;0.60;75.71
13767;BME280;47980;48.794;9.176;2024-01-15T05:10:16;97071.56;;;0.57;75.79
13767;BME280;47980;48.794;9.176;2024-01-15T05:12:48;97076.06;;;0.70;75.77
13767;BME280;47980;48.794;9.176;2024-01-15T05:15:19;97076.47;;;0.77;75.47
13767;BME280;47980;48.794;9.176;2024-01-15T05:17:51;97075.44;;;0.92;74.87
13767;BME280;47980;48.794;9.176;2024-01-15T05:20:22;97066.09;;;0.72;74.92
13767;BME280;47980;48.794;9.176;2024-01-15T05:22:54;97072.09;;;0.72;75.38
13767;BME280;47980;48.794;9.176;2024-01-15T05:25:26;97072.47;;;0.66;76.31
13767;BME280;47980;48.794;9.176;2024-01-15T05:27:58;97072.19;;;0.67;76.14
13767;BME280;47980;48.794;9.176;2024-01-15T05:30:29;97070.75;;;0.75;75.97
13767;BME280;47980;48.794;9.176;2024-01-15T05:33:01;97057.09;;;0.64;76.15
13767;BME280;47980;48.794;9.176;2024-01-15T05:35:33;97054.03;;;0.76;75.29
13767;BME280;47980;48.794;9.176;2024-01-15T05:38:04;97057.94;;;0.92;74.55
13767;BME280;47980;48.794;9.176;2024-01-15T05:40:37;97056.06;;;0.65;75.63
13767;BME280;47980;48.794;9.176;2024-01-15T05:43:09;97053.16;;;0.67;75.58
13767;BME280;47980;48.794;9.176;2024-01-15T05:45:43;97050.06;;;0.79;75.30
13767;BME280;47980;48.794;9.176;2024-01-15T05:48:14;97053.03;;;0.91;75.52
13767;BME280;47980;48.794;9.176;2024-01-15T05:50:46;97051.19;;;0.91;75.15
13767;BME280;47980;48.794;9.176;2024-01-15T05:53:17;97055.88;;;0.76;75.07
13767;BME280;47980;48.794;9.176;2024-01-15T05:55:50;97062.56;;;0.82;75.89
13767;BME280;47980;48.794;9.176;2024-01-15T05:58:22;97071.28;;;0.91;74.98
13767;BME280;47980;48.794;9.176;2024-01-15T06:00:53;97076.69;;;0.81;74.98
13767;BME280;47980;48.794;9.176;2024-01-15T06:03:24;97075.91;;;0.80;75.46
13767;BME280;47980;48.794;9.176;2024-01-15T06:05:56;97070.47;;;0.77;75.25
13767;BME280;47980;48.794;9.176;2024-01-15T06:08:28;97067.97;;;0.85;75.09
13767;BME280;47980;48.794;9.176;2024-01-15T06:11:00;97067.44;;;1.02;74.20
13767;BME280;47980;48.794;9.176;2024-01-15T06:13:33;97057.63;;;0.94;74.18
13767;BME280;47980;48.794;9.176;2024-01-15T06:16:12;97066.38;;;1.03;74.39
13767;BME280;47980;48.794;9.176;2024-01-15T06:18:44;97073.50;;;0.98;74.17
13767;BME280;47980;48.794;9.176;2024-01-15T06:21:16;97069.25;;;1.02;74.44
13767;BME280;47980;48.794;9.176;2024-01-15T06:23:50;97059.88;;;1.01;73.95
13767;BME280;47980;48.794;9.176;2024-01-15T06:26:23;97063.72;;;0.89;74.41
13767;BME280;47980;48.794;9.176;2024-01-15T06:28:55;97056.09;;;0.93;74.39
13767;BME280;47980;48.794;9.176;2024-01-15T06:31:26;97044.53;;;0.99;74.06
13767;BME280;47980;48.794;9.176;2024-01-15T06:33:58;97045.00;;;0.87;74.23
13767;BME280;47980;48.794;9.176;2024-01-15T06:36:29;97050.69;;;0.89;74.42
13767;BME280;47980;48.794;9.176;2024-01-15T06:39:01;97036.75;;;0.94;74.20
13767;BME280;47980;48.794;9.176;2024-01-15T06:41:34;97040.75;;;0.91;74.31
13767;BME280;47980;48.794;9.176;2024-01-15T06:44:06;97033.75;;;0.87;74.00
13767;BME280;47980;48.794;9.176;2024-01-15T06:46:41;97019.28;;;0.94;73.22
13767;BME280;47980;48.794;9.176;2024-01-15T06:49:13;97024.41;;;1.00;73.51
13767;BME280;47980;48.794;9.176;2024-01-15T06:51:45;97014.53;;;0.96;74.48
13767;BME280;47980;48.794;9.176;2024-01-15T06:54:16;97021.91;;;0.94;74.49
13767;BME280;47980;48.794;9.176;2024-01-15T06:56:49;97016.88;;;0.98;73.92
13767;BME280;47980;48.794;9.176;2024-01-15T06:59:20;97011.53;;;0.89;74.54
13767;BME280;47980;48.794;9.176;2024-01-15T07:01:52;97021.03;;;0.99;75.02
13767;BME280;47980;48.794;9.176;2024-01-15T07:04:23;97025.75;;;0.97;73.67
13767;BME280;47980;48.794;9.176;2024-01-15T07:06:55;97024.38;;;0.86;74.83
13767;BME280;47980;48.794;9.176;2024-01-15T07:09:26;97017.06;;;0.88;74.16
13767;BME280;47980;48.794;9.176;2024-01-15T07:11:59;97031.47;;;0.99;73.62
13767;BME280;47980;48.794;9.176;2024-01-15T07:14:31;97030.75;;;0.93;74.11
13767;BME280;47980;48.794;9.176;2024-01-15T07:17:02;97024.69;;;0.98;72.99
13767;BME280;47980;48.794;9.176;2024-01-15T07:19:34;97027.97;;;0.90;73.66
13767;BME280;47980;48.794;9.176;2024-01-15T07:22:06;97021.88;;;1.08;71.66
13767;BME280;47980;48.794;9.176;2024-01-15T07:24:37;97036.78;;;1.08;72.11
13767;BME280;47980;48.794;9.176;2024-01-15T07:27:10;97037.66;;;1.17;71.54
13767;BME280;47980;48.794;9.176;2024-01-15T07:29:42;97041.53;;;1.19;71.01
13767;BME280;47980;48.794;9.176;2024-01-15T07:32:14;97036.97;;;1.11;71.00
13767;BME280;47980;48.794;9.176;2024-01-15T07:34:45;97044.06;;;1.38;70.27
13767;BME280;47980;48.794;9.176;2024-01-15T07:37:16;97039.97;;;1.05;71.23
13767;BME280;47980;48.794;9.176;2024-01-15T07:39:48;97033.59;;;1.11;70.95
13767;BME280;47980;48.794;9.176;2024-01-15T07:42:21;97045.97;;;1.05;70.71
13767;BME280;47980;48.794;9.176;2024-01-15T07:44:52;97047.16;;;1.13;71.37
13767;BME280;47980;48.794;9.176;2024-01-15T07:47:24;97040.69;;;1.24;70.22
13767;BME280;47980;48.794;9.176;2024-01-15T07:49:55;97047.75;;;1.24;70.07
13767;BME280;47980;48.794;9.176;2024-01-15T07:52:27;97045.31;;;1.27;69.94
13767;BME280;47980;48.794;9.176;2024-01-15T07:54:58;97044.44;;;1.18;69.91
13767;BME280;47980;48.794;9.176;2024-01-15T07:57:32;97052.25;;;1.18;70.69
13767;BME280;47980;48.794;9.176;2024-01-15T08:00:04;97047.72;;;1.37;69.54
13767;BME280;47980;48.794;9.176;2024-01-15T08:02:36;97045.09;;;1.37;69.53
13767;BME280;47980;48.794;9.176;2024-01-15T08:05:07;97048.22;;;1.26;69.87
13767;BME280;47980;48.794;9.176;2024-01-15T08:07:39;97050.44;;;1.32;69.31
13767;BME280;47980;48.794;9.176;2024-01-15T08:10:10;97037.47;;;1.41;69.17
13767;BME280;47980;48.794;9.176;2024-01-15T08:12:45;97044.53;;;1.40;68.64
13767;BME280;47980;48.794;9.176;2024-01-15T08:15:17;97050.34;;;1.37;68.51
13767;BME280;47980;48.794;9.176;2024-01-15T08:17:49;97042.72;;;1.27;68.60
13767;BME280;47980;48.794;9.176;2024-01-15T08:20:20;97047.81;;;1.32;68.80
13767;BME280;47980;48.794;9.176;2024-01-15T08:22:52;97049.94;;;1.44;68.86
13767;BME280;47980;48.794;9.176;2024-01-15T08:25:23;97051.41;;;1.50;68.64
13767;BME280;47980;48.794;9.176;2024-01-15T08:27:57;97061.28;;;1.53;68.12
13767;BME280;47980;48.794;9.176;2024-01-15T08:30:29;97057.22;;;1.47;68.97
13767;BME280;47980;48.794;9.176;2024-01-15T08:33:00;97052.63;;;1.66;68.00
13767;BME280;47980;48.794;9.176;2024-01-15T08:35:32;97059.13;;;1.69;68.00
13767;BME280;47980;48.794;9.176;2024-01-15T08:38:03;97046.06;;;1.55;69.01
13767;BME280;47980;48.794;9.176;2024-01-15T08:40:35;97051.66;;;1.76;67.18
13767;BME280;47980;48.794;9.176;2024-01-15T08:43:08;97045.28;;;1.68;68.18
13767;BME280;47980;48.794;9.176;2024-01-15T08:45:39;97051.28;;;1.69;67.55
13767;BME280;47980;48.794;9.176;2024-01-15T08:48:11;97046.03;;;1.83;66.91
13767;BME280;47980;48.794;9.176;2024-01-15T08:50:42;97049.03;;;1.90;66.17
13767;BME280;47980;48.794;9.176;2024-01-15T08:53:16;97046.03;;;1.83;65.66
13767;BME280;47980;48.794;9.176;2024-01-15T08:55:48;97054.91;;;1.96;65.79
13767;BME280;47980;48.794;9.176;2024-01-15T08:58:21;97057.34;;;1.92;64.28
13767;BME280;47980;48.794;9.176;2024-01-15T09:00:52;97067.31;;;2.04;64.78
13767;BME280;47980;48.794;9.176;2024-01-15T09:03:23;97069.00;;;1.86;64.54
13767;BME280;47980;48.794;9.176;2024-01-15T09:05:55;97059.28;;;2.00;64.05
13767;BME280;47980;48.794;9.176;2024-01-15T09:08:27;97066.13;;;2.10;63.92
13767;BME280;47980;48.794;9.176;2024-01-15T09:10:58;97055.19;;;2.08;63.29
13767;BME280;47980;48.794;9.176;2024-01-15T09:13:34;97057.50;;;2.09;63.53
13767;BME280;47980;48.794;9.176;2024-01-15T09:16:06;97052.00;;;2.11;63.90
13767;BME280;47980;48.794;9.176;2024-01-15T09:18:37;97063.31;;;2.06;64.10
13767;BME280;47980;48.794;9.176;2024-01-15T09:21:08;97049.81;;;2.27;64.24
13767;BME280;47980;48.794;9.176;2024-01-15T09:23:40;97039.50;;;2.30;63.93
13767;BME280;47980;48.794;9.176;2024-01-15T09:26:12;97046.31;;;2.17;64.38
13767;BME280;47980;48.794;9.176;2024-01-15T09:28:44;97027.50;;;2.29;63.73
13767;BME280;47980;48.794;9.176;2024-01-15T09:31:16;97026.25;;;2.49;63.73
13767;BME280;47980;48.794;9.176;2024-01-15T09:33:50;97031.47;;;2.49;62.75
13767;BME280;47980;48.794;9.176;2024-01-15T09:36:26;97030.59;;;2.54;63.06
13767;BME280;47980;48.794;9.176;2024-01-15T09:38:57;97033.56;;;2.61;62.29
13767;BME280;47980;48.794;9.176;2024-01-15T09:41:29;97026.91;;;2.55;62.58
13767;BME280;47980;48.794;9.176;2024-01-15T09:44:03;97037.13;;;2.65;61.86
13767;BME280;47980;48.794;9.176;2024-01-15T09:46:35;97035.19;;;2.79;61.94
13767;BME280;47980;48.794;9.176;2024-01-15T09:49:06;97034.91;;;2.36;63.22
13767;BME280;47980;48.794;9.176;2024-01-15T09:51:39;97037.34;;;2.77;62.78
13767;BME280;47980;48.794;9.176;2024-01-15T09:54:11;97034.50;;;2.87;61.77
13767;BME280;47980;48.794;9.176;2024-01-15T09:56:45;97031.13;;;2.96;61.55
13767;BME280;47980;48.794;9.176;2024-01-15T09:59:19;97033.38;;;2.80;62.22
13767;BME280;47980;48.794;9.176;2024-01-15T10:01:52;97030.25;;;2.69;62.02
13767;BME280;47980;48.794;9.176;2024-01-15T10:04:24;97024.09;;;2.74;62.26
13767;BME280;47980;48.794;9.176;2024-01-15T10:06:57;97018.44;;;2.80;62.00
13767;BME280;47980;48.794;9.176;2024-01-15T10:09:32;97010.88;;;2.79;61.63
13767;BME280;47980;48.794;9.176;2024-01-15T10:12:04;96995.56;;;2.72;62.49
13767;BME280;47980;48.794;9.176;2024-01-15T10:14:37;97003.03;;;2.56;62.40
13767;BME280;47980;48.794;9.176;2024-01-15T10:17:12;97004.44;;;2.85;62.68
13767;BME280;47980;48.794;9.176;2024-01-15T10:19:45;96992.22;;;3.11;61.18
13767;BME280;47980;48.794;9.176;2024-01-15T10:22:17;97000.22;;;2.75;60.96
13767;BME280;47980;48.794;9.176;2024-01-15T10:24:49;97003.94;;;2.83;62.57
13767;BME280;47980;48.794;9.176;2024-01-15T10:27:20;96995.81;;;2.84;61.15
13767;BME280;47980;48.794;9.176;2024-01-15T10:29:53;96990.66;;;2.71;62.84
13767;BME280;47980;48.794;9.176;2024-01-15T10:32:24;96982.41;;;2.86;61.27
13767;BME280;47980;48.794;9.176;2024-01-15T10:34:57;96984.56;;;2.84;62.05
13767;BME280;47980;48.794;9.176;2024-01-15T10:37:28;96973.59;;;3.13;61.54
13767;BME280;47980;48.794;9.176;2024-01-15T10:40:07;96961.41;;;3.17;60.66
13767;BME280;47980;48.794;9.176;2024-01-15T10:42:38;96960.16;;;3.06;61.69
13767;BME280;47980;48.794;9.176;2024-01-15T10:45:11;96961.53;;;3.03;61.21
13767;BME280;47980;48.794;9.176;2024-01-15T10:47:42;96948.66;;;3.24;61.10
13767;BME280;47980;48.794;9.176;2024-01-15T10:50:14;96942.41;;;2.94;61.80
13767;BME280;47980;48.794;9.176;2024-01-15T10:52:46;96943.94;;;2.95;61.47
13767;BME280;47980;48.794;9.176;2024-01-15T10:55:18;96940.22;;;2.87;62.34
13767;BME280;47980;48.794;9.176;2024-01-15T10:57:50;96944.34;;;2.80;62.58
13767;BME280;47980;48.794;9.176;2024-01-15T11:00:24;96952.22;;;2.80;62.46
13767;BME280;47980;48.794;9.176;2024-01-15T11:02:56;96946.69;;;2.90;61.88
13767;BME280;47980;48.794;9.176;2024-01-15T11:05:28;96944.03;;;2.81;62.34
13767;BME280;47980;48.794;9.176;2024-01-15T11:07:59;96944.13;;;3.07;62.66
13767;BME280;47980;48.794;9.176;2024-01-15T11:10:39;96954.31;;;3.09;62.47
13767;BME280;47980;48.794;9.176;2024-01-15T11:13:14;96953.34;;;3.05;62.55
13767;BME280;47980;48.794;9.176;2024-01-15T11:15:58;96939.38;;;3.18;62.99
13767;BME280;47980;48.794;9.176;2024-01-15T11:18:31;96951.38;;;3.10;64.89
13767;BME280;47980;48.794;9.176;2024-01-15T11:21:25;96941.78;;;2.97;66.09
13767;BME280;47980;48.794;9.176;2024-01-15T11:23:58;96942.44;;;2.63;69.14
13767;BME280;47980;48.794;9.176;2024-01-15T11:26:32;96926.63;;;2.46;72.27
13767;BME280;47980;48.794;9.176;2024-01-15T11:29:04;96920.63;;;2.45;73.43
13767;BME280;47980;48.794;9.176;2024-01-15T11:31:58;96925.13;;;2.53;72.74
13767;BME280;47980;48.794;9.176;2024-01-15T11:34:53;96929.25;;;2.77;71.17
13767;BME280;47980;48.794;9.176;2024-01-15T11:37:26;96921.50;;;2.72;72.53
13767;BME280;47980;48.794;9.176;2024-01-15T11:40:02;96915.31;;;2.59;72.80
13767;BME280;47980;48.794;9.176;2024-01-15T11:42:35;96912.13;;;2.71;72.37
13767;BME280;47980;48.794;9.176;2024-01-15T11:45:06;96916.56;;;2.61;72.16
13767;BME280;47980;48.794;9.176;2024-01-15T11:48:00;96915.22;;;2.73;73.14
13767;BME280;47980;48.794;9.176;2024-01-15T11:50:40;96929.47;;;2.27;73.82
13767;BME280;47980;48.794;9.176;2024-01-15T11:53:26;96922.47;;;2.45;75.63
13767;BME280;47980;48.794;9.176;2024-01-15T11:55:59;96923.06;;;2.41;75.32
13767;BME280;47980;48.794;9.176;2024-01-15T11:58:32;96916.50;;;2.53;74.60
13767;BME280;47980;48.794;9.176;2024-01-15T12:01:05;96924.25;;;2.35;76.59
13767;BME280;47980;48.794;9.176;2024-01-15T12:03:38;96926.56;;;2.06;77.59
13767;BME280;47980;48.794;9.176;2024-01-15T12:06:10;96917.75;;;2.02;78.53
13767;BME280;47980;48.794;9.176;2024-01-15T12:08:42;96913.00;;;2.26;76.98
13767;BME280;47980;48.794;9.176;2024-01-15T12:11:15;96907.88;;;2.52;74.73
13767;BME280;47980;48.794;9.176;2024-01-15T12:13:49;96921.00;;;2.61;73.25
13767;BME280;47980;48.794;9.176;2024-01-15T12:16:24;96922.00;;;2.42;74.86
13767;BME280;47980;48.794;9.176;2024-01-15T12:18:56;96934.34;;;2.20;77.87
13767;BME280;47980;48.794;9.176;2024-01-15T12:21:28;96937.97;;;2.10;79.35
13767;BME280;47980;48.794;9.176;2024-01-15T12:24:00;96930.97;;;2.19;81.29
13767;BME280;47980;48.794;9.176;2024-01-15T12:26:31;96929.16;;;2.06;81.37
13767;BME280;47980;48.794;9.176;2024-01-15T12:29:06;96934.28;;;1.88;83.20
13767;BME280;47980;48.794;9.176;2024-01-15T12:31:37;96932.44;;;2.11;83.17
13767;BME280;47980;48.794;9.176;2024-01-15T12:34:10;96932.31;;;2.16;83.50
13767;BME280;47980;48.794;9.176;2024-01-15T12:36:42;96927.69;;;1.91;85.80
13767;BME280;47980;48.794;9.176;2024-01-15T12:39:13;96931.47;;;1.85;88.04
13767;BME280;47980;48.794;9.176;2024-01-15T12:41:45;96937.25;;;1.73;89.31
13767;BME280;47980;48.794;9.176;2024-01-15T12:44:17;96938.97;;;1.78;89.61
13767;BME280;47980;48.794;9.176;2024-01-15T12:46:49;96943.31;;;1.82;91.04
13767;BME280;47980;48.794;9.176;2024-01-15T12:49:23;96942.84;;;1.80;90.91
13767;BME280;47980;48.794;9.176;2024-01-15T12:51:56;96943.25;;;1.74;93.82
13767;BME280;47980;48.794;9.176;2024-01-15T12:54:28;96947.88;;;1.77;95.02
13767;BME280;47980;48.794;9.176;2024-01-15T12:57:00;96946.75;;;1.69;94.95
13767;BME280;47980;48.794;9.176;2024-01-15T12:59:31;96954.94;;;1.76;96.14
13767;BME280;47980;48.794;9.176;2024-01-15T13:02:03;96948.97;;;1.98;94.58
13767;BME280;47980;48.794;9.176;2024-01-15T13:04:36;96955.41;;;2.14;92.68
13767;BME280;47980;48.794;9.176;2024-01-15T13:07:08;96956.00;;;2.11;93.50
13767;BME280;47980;48.794;9.176;2024-01-15T13:09:39;96956.88;;;2.07;93.15
13767;BME280;47980;48.794;9.176;2024-01-15T13:12:11;96959.13;;;2.00;92.91
13767;BME280;47980;48.794;9.176;2024-01-15T13:14:42;96978.63;;;1.93;94.21
13767;BME280;47980;48.794;9.176;2024-01-15T13:17:14;96978.28;;;2.09;92.17
13767;BME280;47980;48.794;9.176;2024-01-15T13:19:47;96973.53;;;2.11;93.59
13767;BME280;47980;48.794;9.176;2024-01-15T13:22:19;96976.72;;;2.08;93.56
13767;BME280;47980;48.794;9.176;2024-01-15T13:24:50;96971.91;;;2.01;93.30
13767;BME280;47980;48.794;9.176;2024-01-15T13:27:23;96983.31;;;2.05;92.91
13767;BME280;47980;48.794;9.176;2024-01-15T13:29:54;96989.09;;;2.16;92.88
13767;BME280;47980;48.794;9.176;2024-01-15T13:32:27;96984.84;;;2.06;93.58
13767;BME280;47980;48.794;9.176;2024-01-15T13:35:00;96992.28;;;2.13;91.89